createdAt,value
2019-03-06T00:01:53.316Z,100191.61
2019-03-06T00:04:17.731Z,100194.89
2019-03-06T00:06:42.326Z,100190.11
2019-03-06T00:09:08.001Z,100196.59
2019-03-06T00:11:32.417Z,100193.96
2019-03-06T00:13:56.830Z,100190.49
2019-03-06T00:16:21.330Z,100190.13
2019-03-06T00:18:45.736Z,100189.58
2019-03-06T00:21:10.249Z,100195.91
2019-03-06T00:23:34.650Z,100190.67
2019-03-06T00:25:59.079Z,100197.04
2019-03-06T00:28:23.481Z,100194.51
2019-03-06T00:30:47.914Z,100196.22
2019-03-06T00:33:12.388Z,100180.92
2019-03-06T00:35:47.469Z,100186.63
2019-03-06T00:38:11.939Z,100189.55
2019-03-06T00:40:47.083Z,100194.03
2019-03-06T00:43:11.486Z,100196.68
2019-03-06T00:45:35.982Z,100193.13
2019-03-06T00:48:00.388Z,100198.33
2019-03-06T00:50:24.868Z,100199.47
2019-03-06T00:52:49.272Z,100202.84
2019-03-06T00:55:14.213Z,100196.11
2019-03-06T00:57:38.623Z,100187.27
2019-03-06T01:00:04.054Z,100191.11
2019-03-06T01:02:28.540Z,100189.22
2019-03-06T01:04:53.090Z,100202.52
2019-03-06T01:07:17.495Z,100199.86
2019-03-06T01:09:41.910Z,100199.01
2019-03-06T01:12:06.854Z,100196.58
2019-03-06T01:14:31.244Z,100202.81
2019-03-06T01:16:55.738Z,100206.62
2019-03-06T01:19:20.221Z,100206.99
2019-03-06T01:21:44.710Z,100206.41
2019-03-06T01:24:09.132Z,100216.37
2019-03-06T01:26:33.617Z,100217.86
2019-03-06T01:28:58.032Z,100217.75
2019-03-06T01:31:22.475Z,100216.27
2019-03-06T01:34:03.540Z,100223.66
2019-03-06T01:36:29.612Z,100223.45
2019-03-06T01:38:58.374Z,100220.22
2019-03-06T01:41:27.393Z,100217.20
2019-03-06T01:43:59.644Z,100216.66
2019-03-06T01:46:24.219Z,100208.38
2019-03-06T01:48:48.693Z,100208.80
2019-03-06T01:51:13.230Z,100206.63
2019-03-06T01:53:37.668Z,100209.69
2019-03-06T01:56:02.456Z,100210.16
2019-03-06T01:58:26.889Z,100208.75
2019-03-06T02:00:51.563Z,100207.58
2019-03-06T02:03:16.910Z,100212.17
2019-03-06T02:05:41.463Z,100208.45
2019-03-06T02:08:06.338Z,100207.79
2019-03-06T02:10:34.324Z,100206.00
2019-03-06T02:13:00.229Z,100205.73
2019-03-06T02:15:24.723Z,100205.56
2019-03-06T02:17:49.200Z,100204.77
2019-03-06T02:20:18.103Z,100201.16
2019-03-06T02:22:42.523Z,100201.48
2019-03-06T02:25:07.282Z,100199.08
2019-03-06T02:27:31.677Z,100187.58
2019-03-06T02:29:56.280Z,100186.42
2019-03-06T02:32:20.699Z,100184.99
2019-03-06T02:34:45.140Z,100187.83
2019-03-06T02:37:09.549Z,100189.51
2019-03-06T02:39:34.060Z,100186.70
2019-03-06T02:41:58.546Z,100186.54
2019-03-06T02:44:22.971Z,100184.22
2019-03-06T02:46:47.444Z,100190.86
2019-03-06T02:49:12.065Z,100183.75
2019-03-06T02:51:36.465Z,100187.17
2019-03-06T02:54:00.851Z,100186.16
2019-03-06T02:56:25.289Z,100182.70
2019-03-06T02:58:57.421Z,100179.13
2019-03-06T03:01:26.477Z,100183.95
2019-03-06T03:04:10.921Z,100184.23
2019-03-06T03:06:45.975Z,100185.56
2019-03-06T03:09:15.724Z,100183.05
2019-03-06T03:11:40.159Z,100176.69
2019-03-06T03:14:04.886Z,100175.19
2019-03-06T03:16:29.315Z,100180.87
2019-03-06T03:18:53.705Z,100175.94
2019-03-06T03:21:18.131Z,100171.42
2019-03-06T03:23:42.541Z,100177.06
2019-03-06T03:26:06.986Z,100165.76
2019-03-06T03:28:31.382Z,100172.19
2019-03-06T03:30:55.865Z,100170.98
2019-03-06T03:33:20.402Z,100164.69
2019-03-06T03:35:44.909Z,100154.12
2019-03-06T03:38:09.350Z,100158.17
2019-03-06T03:40:33.775Z,100158.08
2019-03-06T03:42:58.203Z,100151.80
2019-03-06T03:45:22.622Z,100149.97
2019-03-06T03:47:47.138Z,100151.23
2019-03-06T03:50:11.693Z,100142.88
2019-03-06T03:52:36.497Z,100146.27
2019-03-06T03:55:00.894Z,100145.06
2019-03-06T03:57:25.412Z,100139.61
2019-03-06T03:59:49.889Z,100138.74
2019-03-06T04:02:14.329Z,100147.44
2019-03-06T04:04:38.791Z,100149.52
2019-03-06T04:07:03.197Z,100150.11
2019-03-06T04:09:27.616Z,100145.33
2019-03-06T04:11:52.412Z,100153.09
2019-03-06T04:14:16.843Z,100154.69
2019-03-06T04:16:46.278Z,100148.18
2019-03-06T04:19:10.787Z,100143.48
2019-03-06T04:21:35.202Z,100149.48
2019-03-06T04:23:59.649Z,100143.59
2019-03-06T04:26:24.042Z,100136.61
2019-03-06T04:28:48.461Z,100133.86
2019-03-06T04:31:13.113Z,100126.38
2019-03-06T04:33:37.557Z,100123.20
2019-03-06T04:36:01.979Z,100122.99
2019-03-06T04:38:26.441Z,100118.45
2019-03-06T04:40:51.528Z,100114.35
2019-03-06T04:43:15.937Z,100118.03
2019-03-06T04:45:40.375Z,100116.20
2019-03-06T04:48:04.930Z,100119.69
2019-03-06T04:50:29.362Z,100121.04
2019-03-06T04:52:53.775Z,100122.13
2019-03-06T04:55:18.341Z,100123.13
2019-03-06T04:57:42.813Z,100119.95
2019-03-06T05:00:19.403Z,100124.43
2019-03-06T05:02:43.877Z,100118.93
2019-03-06T05:05:08.457Z,100110.81
2019-03-06T05:07:32.872Z,100103.48
2019-03-06T05:09:57.316Z,100105.45
2019-03-06T05:12:21.740Z,100099.98
2019-03-06T05:14:46.141Z,100099.33
2019-03-06T05:17:21.245Z,100103.09
2019-03-06T05:19:45.913Z,100093.45
2019-03-06T05:22:10.340Z,100086.21
2019-03-06T05:24:34.753Z,100084.69
2019-03-06T05:26:59.167Z,100084.73
2019-03-06T05:29:23.894Z,100083.76
2019-03-06T05:32:26.785Z,100081.11
2019-03-06T05:34:51.175Z,100089.28
2019-03-06T05:37:27.677Z,100086.09
2019-03-06T05:39:52.078Z,100082.62
2019-03-06T05:42:16.500Z,100083.24
2019-03-06T05:44:40.896Z,100079.28
2019-03-06T05:47:09.617Z,100072.66
2019-03-06T05:49:35.745Z,100079.17
2019-03-06T05:52:00.176Z,100079.59
2019-03-06T05:54:24.587Z,100083.84
2019-03-06T05:56:49.013Z,100084.76
2019-03-06T05:59:13.597Z,100085.90
2019-03-06T06:01:38.094Z,100077.34
2019-03-06T06:04:02.506Z,100076.41
2019-03-06T06:06:27.001Z,100078.30
2019-03-06T06:08:51.394Z,100078.72
2019-03-06T06:11:15.790Z,100080.26
2019-03-06T06:13:40.213Z,100073.20
2019-03-06T06:16:04.752Z,100066.31
2019-03-06T06:18:29.191Z,100063.05
2019-03-06T06:20:55.304Z,100059.58
2019-03-06T06:23:37.565Z,100061.98
2019-03-06T06:26:01.958Z,100056.82
2019-03-06T06:28:26.389Z,100054.95
2019-03-06T06:30:50.892Z,100053.28
2019-03-06T06:33:15.321Z,100048.06
2019-03-06T06:35:39.708Z,100044.83
2019-03-06T06:38:04.183Z,100040.87
2019-03-06T06:40:28.598Z,100042.77
2019-03-06T06:42:53.044Z,100033.08
2019-03-06T06:45:17.910Z,100035.55
2019-03-06T06:48:14.103Z,100028.33
2019-03-06T06:50:41.840Z,100017.70
2019-03-06T06:53:33.467Z,100025.52
2019-03-06T06:56:17.489Z,100022.89
2019-03-06T06:58:47.547Z,100019.17
2019-03-06T07:01:24.936Z,100020.91
2019-03-06T07:04:17.918Z,100013.89
2019-03-06T07:07:02.429Z,100015.28
2019-03-06T07:09:28.502Z,100024.45
2019-03-06T07:12:12.630Z,100013.55
2019-03-06T07:14:44.685Z,100021.48
2019-03-06T07:17:10.822Z,100013.41
2019-03-06T07:19:36.976Z,100013.70
2019-03-06T07:22:15.052Z,100025.37
2019-03-06T07:24:41.198Z,100019.52
2019-03-06T07:27:07.688Z,100018.81
2019-03-06T07:29:36.696Z,100014.11
2019-03-06T07:32:19.145Z,100007.64
2019-03-06T07:35:10.778Z,100018.19
2019-03-06T07:37:39.527Z,100005.58
2019-03-06T07:40:05.804Z,100007.05
2019-03-06T07:42:31.852Z,99999.53
2019-03-06T07:45:47.498Z,99991.05
2019-03-06T07:48:25.661Z,99991.92
2019-03-06T07:50:51.714Z,99988.38
2019-03-06T07:54:10.589Z,99982.52
2019-03-06T07:56:49.125Z,99973.41
2019-03-06T07:59:13.667Z,99961.65
2019-03-06T08:01:50.559Z,99964.71
2019-03-06T08:04:15.897Z,99966.06
2019-03-06T08:06:42.074Z,99963.23
2019-03-06T08:09:09.444Z,99966.00
2019-03-06T08:11:35.477Z,99971.94
2019-03-06T08:14:01.526Z,99963.92
2019-03-06T08:16:27.560Z,99925.27
2019-03-06T08:18:53.616Z,99968.35
2019-03-06T08:21:19.804Z,99949.17
2019-03-06T08:23:57.619Z,99943.98
2019-03-06T08:26:22.088Z,99945.16
2019-03-06T08:28:46.493Z,99934.82
2019-03-06T08:31:21.566Z,99930.50
2019-03-06T08:33:46.127Z,99923.14
2019-03-06T08:36:10.599Z,99920.31
2019-03-06T08:38:35.024Z,99926.45
2019-03-06T08:41:04.569Z,99916.69
2019-03-06T08:43:25.498Z,99917.01
2019-03-06T08:46:07.834Z,99909.09
2019-03-06T08:48:50.395Z,99909.42
2019-03-06T08:51:16.428Z,99905.42
2019-03-06T08:53:45.577Z,99909.27
2019-03-06T08:56:11.724Z,99911.61
2019-03-06T08:58:37.759Z,99909.18
2019-03-06T09:01:35.037Z,99911.20
2019-03-06T09:04:01.137Z,99900.34
2019-03-06T09:06:39.310Z,99901.65
2019-03-06T09:09:09.570Z,99902.25
2019-03-06T09:11:44.900Z,99899.34
2019-03-06T09:14:13.890Z,99904.37
2019-03-06T09:16:51.925Z,99894.70
2019-03-06T09:19:31.424Z,99883.42
2019-03-06T09:21:57.483Z,99881.58
2019-03-06T09:24:23.523Z,99892.33
2019-03-06T09:26:52.678Z,99885.27
2019-03-06T09:29:27.834Z,99889.77
2019-03-06T09:31:57.028Z,99891.01
2019-03-06T09:34:23.086Z,99884.31
2019-03-06T09:36:55.227Z,99887.17
2019-03-06T09:39:30.821Z,99886.52
2019-03-06T09:41:56.954Z,99881.03
2019-03-06T09:44:25.740Z,99876.97
2019-03-06T09:47:00.799Z,99872.45
2019-03-06T09:49:26.863Z,99860.52
2019-03-06T09:51:59.028Z,99855.67
2019-03-06T09:54:25.100Z,99849.33
2019-03-06T09:56:57.096Z,99843.18
2019-03-06T09:59:23.156Z,99842.37
2019-03-06T10:01:52.034Z,99837.86
2019-03-06T10:04:34.441Z,99835.25
2019-03-06T10:07:03.180Z,99822.44
2019-03-06T10:09:31.955Z,99825.11
2019-03-06T10:12:07.062Z,99818.08
2019-03-06T10:14:49.246Z,99807.23
2019-03-06T10:17:24.422Z,99801.91
2019-03-06T10:19:50.495Z,99799.09
2019-03-06T10:22:15.085Z,99786.39
2019-03-06T10:24:39.581Z,99784.03
2019-03-06T10:27:04.320Z,99780.31
2019-03-06T10:29:29.108Z,99792.54
2019-03-06T10:31:53.579Z,99775.38
2019-03-06T10:34:18.370Z,99774.62
2019-03-06T10:36:43.047Z,99773.53
2019-03-06T10:39:08.689Z,99762.88
2019-03-06T10:41:33.144Z,99759.61
2019-03-06T10:43:57.629Z,99758.36
2019-03-06T10:46:22.148Z,99760.37
2019-03-06T10:48:48.374Z,99743.87
2019-03-06T10:51:12.971Z,99744.47
2019-03-06T10:53:41.287Z,99747.89
2019-03-06T10:56:03.798Z,99738.91
2019-03-06T10:58:31.053Z,99745.11
2019-03-06T11:00:55.652Z,99740.16
2019-03-06T11:03:20.315Z,99746.65
2019-03-06T11:05:44.923Z,99741.23
2019-03-06T11:08:09.492Z,99742.98
2019-03-06T11:10:34.742Z,99743.72
2019-03-06T11:12:59.611Z,99728.21
2019-03-06T11:15:24.249Z,99722.42
2019-03-06T11:17:49.486Z,99719.55
2019-03-06T11:20:23.068Z,99708.95
2019-03-06T11:22:47.924Z,99703.23
2019-03-06T11:25:15.549Z,99701.68
2019-03-06T11:27:40.116Z,99698.18
2019-03-06T11:30:07.560Z,99696.91
2019-03-06T11:32:32.068Z,99703.94
2019-03-06T11:34:56.698Z,99698.38
2019-03-06T11:37:21.578Z,99694.63
2019-03-06T11:39:46.992Z,99687.09
2019-03-06T11:42:11.497Z,99687.21
2019-03-06T11:44:36.044Z,99681.03
2019-03-06T11:47:00.452Z,99680.68
2019-03-06T11:49:24.953Z,99673.82
2019-03-06T11:51:49.720Z,99665.30
2019-03-06T11:54:14.236Z,99651.20
2019-03-06T11:56:38.760Z,99656.47
2019-03-06T11:59:03.606Z,99662.03
2019-03-06T12:01:29.926Z,99653.14
2019-03-06T12:03:54.998Z,99640.52
2019-03-06T12:06:19.473Z,99643.49
2019-03-06T12:08:45.935Z,99633.66
2019-03-06T12:11:10.013Z,99628.73
2019-03-06T12:13:34.898Z,99621.27
2019-03-06T12:15:59.361Z,99613.98
2019-03-06T12:18:24.726Z,99617.79
2019-03-06T12:20:49.126Z,99602.55
2019-03-06T12:23:13.698Z,99608.39
2019-03-06T12:25:38.637Z,99607.72
2019-03-06T12:28:03.727Z,99604.13
2019-03-06T12:30:28.273Z,99597.58
2019-03-06T12:32:52.767Z,99589.88
2019-03-06T12:35:18.008Z,99583.98
2019-03-06T12:37:46.973Z,99587.95
2019-03-06T12:40:14.917Z,99578.23
2019-03-06T12:42:39.618Z,99568.84
2019-03-06T12:45:07.119Z,99572.63
2019-03-06T12:47:31.531Z,99569.05
2019-03-06T12:49:55.950Z,99561.47
2019-03-06T12:52:20.341Z,99546.94
2019-03-06T12:54:44.863Z,99550.25
2019-03-06T12:57:09.539Z,99543.78
2019-03-06T12:59:33.955Z,99529.81
2019-03-06T13:01:58.480Z,99541.23
2019-03-06T13:04:22.870Z,99522.88
2019-03-06T13:06:47.386Z,99509.98
2019-03-06T13:09:16.835Z,99513.23
2019-03-06T13:11:41.320Z,99499.19
2019-03-06T13:14:05.788Z,99489.20
2019-03-06T13:16:30.297Z,99477.41
2019-03-06T13:18:55.057Z,99476.05
2019-03-06T13:21:19.561Z,99464.72
2019-03-06T13:23:44.059Z,99464.48
2019-03-06T13:26:10.682Z,99451.45
2019-03-06T13:28:34.703Z,99458.45
2019-03-06T13:30:59.134Z,99457.11
2019-03-06T13:33:37.691Z,99444.19
2019-03-06T13:36:02.222Z,99441.58
2019-03-06T13:38:26.731Z,99434.09
2019-03-06T13:40:51.256Z,99424.89
2019-03-06T13:43:15.674Z,99427.47
2019-03-06T13:45:40.465Z,99424.73
2019-03-06T13:48:05.032Z,99416.55
2019-03-06T13:50:29.421Z,99405.55
2019-03-06T13:52:53.937Z,99404.89
2019-03-06T13:55:18.475Z,99395.90
2019-03-06T13:57:44.363Z,99402.33
2019-03-06T14:00:12.552Z,99397.42
2019-03-06T14:02:37.336Z,99381.38
2019-03-06T14:05:01.750Z,99390.19
2019-03-06T14:07:26.172Z,99378.98
2019-03-06T14:09:50.708Z,99378.77
2019-03-06T14:12:15.214Z,99371.84
2019-03-06T14:14:39.610Z,99364.77
2019-03-06T14:17:05.278Z,99362.27
2019-03-06T14:19:29.690Z,99364.10
2019-03-06T14:21:54.185Z,99363.72
2019-03-06T14:24:18.695Z,99366.23
2019-03-06T14:26:43.173Z,99365.48
2019-03-06T14:29:07.774Z,99356.16
2019-03-06T14:31:32.315Z,99366.29
2019-03-06T14:33:56.803Z,99356.20
2019-03-06T14:36:21.298Z,99348.91
2019-03-06T14:38:45.717Z,99344.20
2019-03-06T14:41:10.527Z,99330.94
2019-03-06T14:43:35.100Z,99323.69
2019-03-06T14:45:59.507Z,99322.33
2019-03-06T14:48:24.085Z,99323.13
2019-03-06T14:50:48.487Z,99304.80
2019-03-06T14:53:13.005Z,99300.42
2019-03-06T14:55:37.497Z,99290.20
2019-03-06T14:58:01.967Z,99286.63
2019-03-06T15:00:26.407Z,99283.28
2019-03-06T15:02:50.812Z,99282.50
2019-03-06T15:05:16.153Z,99285.16
2019-03-06T15:07:40.699Z,99276.16
2019-03-06T15:10:08.367Z,99267.88
2019-03-06T15:12:32.847Z,99267.42
2019-03-06T15:14:57.283Z,99264.11
2019-03-06T15:17:21.700Z,99259.27
2019-03-06T15:19:46.156Z,99244.77
2019-03-06T15:22:10.717Z,99239.73
2019-03-06T15:24:41.433Z,99234.02
2019-03-06T15:27:01.480Z,99226.36
2019-03-06T15:29:26.263Z,99213.31
2019-03-06T15:31:51.574Z,99207.02
2019-03-06T15:34:16.045Z,99208.06
2019-03-06T15:36:40.541Z,99207.26
2019-03-06T15:39:08.003Z,99202.39
2019-03-06T15:41:32.444Z,99192.36
2019-03-06T15:43:56.998Z,99195.23
2019-03-06T15:46:21.518Z,99190.50
2019-03-06T15:48:45.935Z,99188.20
2019-03-06T15:51:10.511Z,99188.31
2019-03-06T15:53:35.174Z,99183.02
2019-03-06T15:55:59.748Z,99174.23
2019-03-06T15:58:24.308Z,99182.69
2019-03-06T16:00:49.408Z,99180.19
2019-03-06T16:03:14.251Z,99178.82
2019-03-06T16:05:39.135Z,99175.75
2019-03-06T16:08:03.772Z,99177.56
2019-03-06T16:10:28.869Z,99164.91
2019-03-06T16:12:53.359Z,99162.48
2019-03-06T16:15:18.108Z,99167.66
2019-03-06T16:17:42.685Z,99168.53
2019-03-06T16:20:15.690Z,99164.22
2019-03-06T16:22:40.125Z,99170.84
2019-03-06T16:25:05.478Z,99169.38
2019-03-06T16:27:29.921Z,99171.04
2019-03-06T16:29:54.359Z,99154.17
2019-03-06T16:32:18.952Z,99159.05
2019-03-06T16:34:43.717Z,99160.32
2019-03-06T16:37:08.285Z,99151.36
2019-03-06T16:39:32.846Z,99144.69
2019-03-06T16:41:57.359Z,99130.36
2019-03-06T16:44:22.511Z,99129.51
2019-03-06T16:46:47.076Z,99128.53
2019-03-06T16:49:11.558Z,99133.56
2019-03-06T16:51:36.112Z,99132.47
2019-03-06T16:54:00.589Z,99134.23
2019-03-06T16:56:25.330Z,99141.19
2019-03-06T16:58:49.863Z,99133.96
2019-03-06T17:04:00.164Z,99140.30
2019-03-06T17:15:20.039Z,99142.29
2019-03-06T17:20:42.122Z,99137.66
2019-03-06T17:23:07.195Z,99139.80
2019-03-06T17:25:33.239Z,99146.61
2019-03-06T17:27:58.008Z,99142.59
2019-03-06T17:30:25.121Z,99152.92
2019-03-06T17:32:58.573Z,99136.38
2019-03-06T17:35:23.858Z,99137.72
2019-03-06T17:37:48.379Z,99129.23
2019-03-06T17:40:13.659Z,99132.02
2019-03-06T17:42:38.152Z,99136.95
2019-03-06T17:47:54.011Z,99147.55
2019-03-06T17:50:18.771Z,99148.26
2019-03-06T17:52:43.346Z,99147.89
2019-03-06T17:55:09.180Z,99147.42
2019-03-06T17:57:33.594Z,99146.89
2019-03-06T17:59:58.014Z,99139.26
2019-03-06T18:02:23.189Z,99131.70
2019-03-06T18:04:47.688Z,99132.83
2019-03-06T18:07:12.164Z,99126.98
2019-03-06T18:09:36.733Z,99119.40
2019-03-06T18:12:01.272Z,99118.84
2019-03-06T18:14:25.695Z,99119.45
2019-03-06T18:16:50.152Z,99121.66
2019-03-06T18:19:14.725Z,99115.13
2019-03-06T18:21:39.218Z,99114.64
2019-03-06T18:24:03.884Z,99119.44
2019-03-06T18:26:28.434Z,99114.97
2019-03-06T18:28:54.607Z,99118.02
2019-03-06T18:31:18.971Z,99105.72
2019-03-06T18:33:43.406Z,99109.41
2019-03-06T18:36:07.993Z,99109.95
2019-03-06T18:38:32.722Z,99115.52
2019-03-06T18:41:00.547Z,99098.33
2019-03-06T18:43:24.957Z,99100.23
2019-03-06T18:45:49.460Z,99092.66
2019-03-06T18:48:13.862Z,99106.30
2019-03-06T18:50:38.272Z,99097.20
2019-03-06T18:53:02.827Z,99086.47
2019-03-06T18:55:27.326Z,99093.30
2019-03-06T18:57:52.276Z,99077.50
2019-03-06T19:00:19.232Z,99083.84
2019-03-06T19:02:43.626Z,99070.63
2019-03-06T19:05:09.998Z,99062.01
2019-03-06T19:07:34.516Z,99059.16
2019-03-06T19:09:58.938Z,99061.80
2019-03-06T19:12:23.352Z,99053.84
2019-03-06T19:14:47.845Z,99053.66
2019-03-06T19:17:12.341Z,99052.51
2019-03-06T19:19:36.755Z,99045.50
2019-03-06T19:22:01.498Z,99043.39
2019-03-06T19:24:25.972Z,99039.84
2019-03-06T19:26:50.387Z,99037.93
2019-03-06T19:29:14.796Z,99040.05
2019-03-06T19:31:39.333Z,99040.42
2019-03-06T19:34:03.810Z,99040.87
2019-03-06T19:36:28.224Z,99033.81
2019-03-06T19:38:52.643Z,99031.08
2019-03-06T19:41:17.217Z,99028.37
2019-03-06T19:43:41.651Z,99023.08
2019-03-06T19:46:06.390Z,99013.84
2019-03-06T19:48:30.786Z,99017.81
2019-03-06T19:50:55.176Z,99011.08
2019-03-06T19:53:19.597Z,99009.31
2019-03-06T19:55:44.137Z,99004.64
2019-03-06T19:58:12.578Z,98991.20
2019-03-06T20:00:37.122Z,98993.25
2019-03-06T20:03:02.507Z,98994.91
2019-03-06T20:05:35.788Z,98985.00
2019-03-06T20:08:01.491Z,98970.73
2019-03-06T20:10:26.087Z,98977.19
2019-03-06T20:12:50.591Z,98973.91
2019-03-06T20:15:17.703Z,98968.80
2019-03-06T20:17:42.279Z,98970.95
2019-03-06T20:20:09.495Z,98977.56
2019-03-06T20:22:33.919Z,98973.14
2019-03-06T20:24:58.312Z,98970.64
2019-03-06T20:27:23.212Z,98964.63
2019-03-06T20:29:47.872Z,98964.37
2019-03-06T20:32:12.292Z,98951.00
2019-03-06T20:34:36.730Z,98952.52
2019-03-06T20:37:01.214Z,98941.28
2019-03-06T20:39:25.716Z,98940.05
2019-03-06T20:41:50.139Z,98937.08
2019-03-06T20:44:14.560Z,98933.85
2019-03-06T20:46:38.970Z,98934.44
2019-03-06T20:49:03.407Z,98936.79
2019-03-06T20:51:27.894Z,98931.23
2019-03-06T20:53:52.335Z,98931.56
2019-03-06T20:56:17.174Z,98932.48
2019-03-06T20:58:41.624Z,98928.17
2019-03-06T21:01:06.258Z,98931.08
2019-03-06T21:03:30.699Z,98923.09
2019-03-06T21:05:55.099Z,98917.01
2019-03-06T21:08:19.546Z,98911.45
2019-03-06T21:10:44.029Z,98905.66
2019-03-06T21:13:08.442Z,98918.73
2019-03-06T21:15:32.861Z,98917.77
2019-03-06T21:17:57.268Z,98899.98
2019-03-06T21:20:22.852Z,98905.13
2019-03-06T21:22:47.579Z,98902.63
2019-03-06T21:25:17.117Z,98893.73
2019-03-06T21:27:41.584Z,98902.77
2019-03-06T21:30:15.934Z,98902.63
2019-03-06T21:32:42.191Z,98895.81
2019-03-06T21:35:07.600Z,98905.53
2019-03-06T21:37:32.009Z,98900.44
2019-03-06T21:39:56.621Z,98892.12
2019-03-06T21:42:21.041Z,98899.19
2019-03-06T21:44:45.470Z,98892.17
2019-03-06T21:47:09.876Z,98893.03
2019-03-06T21:49:34.354Z,98889.20
2019-03-06T21:51:58.979Z,98892.34
2019-03-06T21:54:23.379Z,98894.57
2019-03-06T21:56:47.798Z,98894.57
2019-03-06T21:59:12.282Z,98882.25
2019-03-06T22:01:36.714Z,98896.59
2019-03-06T22:04:01.116Z,98892.20
2019-03-06T22:06:25.985Z,98885.28
2019-03-06T22:08:50.391Z,98885.80
2019-03-06T22:11:14.819Z,98884.02
2019-03-06T22:13:39.224Z,98877.91
2019-03-06T22:16:04.017Z,98872.22
2019-03-06T22:18:28.428Z,98872.59
2019-03-06T22:20:52.839Z,98860.61
2019-03-06T22:23:19.154Z,98853.98
2019-03-06T22:25:43.446Z,98860.24
2019-03-06T22:28:07.916Z,98856.91
2019-03-06T22:30:32.319Z,98855.03
2019-03-06T22:32:56.793Z,98848.20
2019-03-06T22:35:21.182Z,98855.52
2019-03-06T22:37:45.669Z,98852.40
2019-03-06T22:40:13.481Z,98840.33
2019-03-06T22:42:37.897Z,98844.63
2019-03-06T22:45:02.280Z,98839.77
2019-03-06T22:47:26.707Z,98833.94
2019-03-06T22:49:51.183Z,98826.38
2019-03-06T22:52:15.667Z,98818.59
2019-03-06T22:54:40.096Z,98810.03
2019-03-06T22:57:04.585Z,98817.48
2019-03-06T22:59:29.044Z,98815.45
2019-03-06T23:01:54.233Z,98806.94
2019-03-06T23:04:18.910Z,98808.40
2019-03-06T23:06:43.381Z,98807.03
2019-03-06T23:09:09.342Z,98799.41
2019-03-06T23:11:33.720Z,98792.88
2019-03-06T23:13:58.155Z,98786.90
2019-03-06T23:16:22.642Z,98786.98
2019-03-06T23:18:47.042Z,98793.77
2019-03-06T23:21:11.504Z,98784.86
2019-03-06T23:23:36.401Z,98789.72
2019-03-06T23:26:00.893Z,98776.18
2019-03-06T23:28:25.294Z,98771.30
2019-03-06T23:30:49.723Z,98768.07
2019-03-06T23:33:14.172Z,98761.05
2019-03-06T23:35:38.607Z,98759.55
2019-03-06T23:38:03.152Z,98755.22
2019-03-06T23:40:27.671Z,98766.98
2019-03-06T23:42:52.139Z,98758.63
2019-03-06T23:45:16.987Z,98755.22
2019-03-06T23:47:41.451Z,98750.20
2019-03-06T23:50:07.719Z,98747.27
2019-03-06T23:52:33.751Z,98747.95
2019-03-06T23:54:58.189Z,98745.67
2019-03-06T23:57:22.586Z,98752.84
2019-03-06T23:59:47.015Z,98745.32
